createdAt,value
2016-06-01T00:00:51.041Z,19.41
2016-06-01T00:01:51.028Z,19.51
2016-06-01T00:02:50.859Z,19.49
2016-06-01T00:03:50.986Z,19.48
2016-06-01T00:04:50.817Z,19.33
2016-06-01T00:05:50.960Z,19.48
2016-06-01T00:06:50.791Z,19.54
2016-06-01T00:07:50.935Z,19.36
2016-06-01T00:08:51.437Z,19.47
2016-06-01T00:09:50.915Z,19.49
2016-06-01T00:10:50.928Z,19.45
2016-06-01T00:11:50.925Z,19.4
2016-06-01T00:12:50.939Z,19.26
2016-06-01T00:13:50.952Z,19.3
2016-06-01T00:14:50.937Z,19.24
2016-06-01T00:15:50.932Z,19.29
2016-06-01T00:16:50.929Z,19.24
2016-06-01T00:17:50.769Z,19.18
2016-06-01T00:18:50.906Z,19.22
2016-06-01T00:19:50.899Z,19.15
2016-06-01T00:20:50.889Z,19.22
2016-06-01T00:21:50.864Z,19.18
2016-06-01T00:22:50.854Z,19.18
2016-06-01T00:23:51.080Z,19.15
2016-06-01T00:24:50.833Z,19.16
2016-06-01T00:25:50.806Z,19.16
2016-06-01T00:26:50.794Z,19.15
2016-06-01T00:27:50.626Z,19.14
2016-06-01T00:28:50.771Z,19.08
2016-06-01T00:29:50.586Z,19.08
2016-06-01T00:30:50.730Z,19.08
2016-06-01T00:31:50.702Z,19.16
2016-06-01T00:32:50.689Z,19.09
2016-06-01T00:33:50.661Z,19.14
2016-06-01T00:34:50.664Z,19.08
2016-06-01T00:35:50.636Z,19.08
2016-06-01T00:36:50.623Z,19.08
2016-06-01T00:37:50.609Z,19.02
2016-06-01T00:38:50.581Z,19.12
2016-06-01T00:39:50.569Z,19.12
2016-06-01T00:40:50.540Z,19.07
2016-06-01T00:41:50.527Z,18.98
2016-06-01T00:42:50.514Z,19.07
2016-06-01T00:43:50.485Z,19.15
2016-06-01T00:44:50.332Z,18.99
2016-06-01T00:45:50.303Z,19.04
2016-06-01T00:46:50.493Z,19
2016-06-01T00:47:50.261Z,18.95
2016-06-01T00:48:50.421Z,18.96
2016-06-01T00:49:50.392Z,18.93
2016-06-01T00:50:50.363Z,18.96
2016-06-01T00:51:50.351Z,18.88
2016-06-01T00:52:50.322Z,18.92
2016-06-01T00:53:50.449Z,18.89
2016-06-01T00:54:50.296Z,18.81
2016-06-01T00:55:50.283Z,18.83
2016-06-01T00:56:50.270Z,18.78
2016-06-01T00:57:50.242Z,18.84
2016-06-01T00:58:50.229Z,18.83
2016-06-01T00:59:50.215Z,18.78
2016-06-01T01:00:50.203Z,18.77
2016-06-01T01:01:50.190Z,18.74
2016-06-01T01:02:50.006Z,18.75
2016-06-01T01:03:50.133Z,18.71
2016-06-01T01:04:50.120Z,18.71
2016-06-01T01:05:50.091Z,18.58
2016-06-01T01:06:50.078Z,18.66
2016-06-01T01:07:50.065Z,18.62
2016-06-01T01:08:50.053Z,18.65
2016-06-01T01:09:50.024Z,18.63
2016-06-01T01:10:50.011Z,18.74
2016-06-01T01:11:49.983Z,18.63
2016-06-01T01:12:49.969Z,18.63
2016-06-01T01:13:49.956Z,18.63
2016-06-01T01:14:49.944Z,18.7
2016-06-01T01:15:49.931Z,18.59
2016-06-01T01:16:49.902Z,18.66
2016-06-01T01:17:49.874Z,18.62
2016-06-01T01:18:49.860Z,18.59
2016-06-01T01:19:49.847Z,18.65
2016-06-01T01:20:49.819Z,18.66
2016-06-01T01:21:49.807Z,18.6
2016-06-01T01:22:49.793Z,18.6
2016-06-01T01:23:49.843Z,18.6
2016-06-01T01:24:49.752Z,18.62
2016-06-01T01:25:49.738Z,18.63
2016-06-01T01:26:49.570Z,18.65
2016-06-01T01:27:49.698Z,18.56
2016-06-01T01:28:49.685Z,18.62
2016-06-01T01:29:49.671Z,18.65
2016-06-01T01:30:49.642Z,18.65
2016-06-01T01:31:49.629Z,18.63
2016-06-01T01:32:49.601Z,18.6
2016-06-01T01:33:49.589Z,18.6
2016-06-01T01:34:49.591Z,18.59
2016-06-01T01:35:49.562Z,18.62
2016-06-01T01:36:49.534Z,18.63
2016-06-01T01:37:49.521Z,18.65
2016-06-01T01:38:50.070Z,18.65
2016-06-01T01:39:49.480Z,18.58
2016-06-01T01:40:49.466Z,18.62
2016-06-01T01:41:49.438Z,18.63
2016-06-01T01:42:49.425Z,18.7
2016-06-01T01:43:49.412Z,18.7
2016-06-01T01:44:49.399Z,18.62
2016-06-01T01:45:49.371Z,18.7
2016-06-01T01:46:49.358Z,18.66
2016-06-01T01:47:49.330Z,18.66
2016-06-01T01:48:49.316Z,18.55
2016-06-01T01:49:49.303Z,18.62
2016-06-01T01:50:49.275Z,18.63
2016-06-01T01:51:49.262Z,18.62
2016-06-01T01:52:49.249Z,18.63
2016-06-01T01:53:49.751Z,18.58
2016-06-01T01:54:49.204Z,18.59
2016-06-01T01:55:49.191Z,18.63
2016-06-01T01:56:49.179Z,18.6
2016-06-01T01:57:49.151Z,18.56
2016-06-01T01:58:49.137Z,18.58
2016-06-01T01:59:49.109Z,18.53
2016-06-01T02:00:48.940Z,18.59
2016-06-01T02:01:48.926Z,18.59
2016-06-01T02:02:49.070Z,18.56
2016-06-01T02:03:49.056Z,18.63
2016-06-01T02:04:49.029Z,18.56
2016-06-01T02:05:49.015Z,18.56
2016-06-01T02:06:48.987Z,18.59
2016-06-01T02:07:48.974Z,18.6
2016-06-01T02:08:49.664Z,18.62
2016-06-01T02:09:48.775Z,18.62
2016-06-01T02:10:48.920Z,18.63
2016-06-01T02:11:48.906Z,18.56
2016-06-01T02:12:48.894Z,18.56
2016-06-01T02:13:48.709Z,18.58
2016-06-01T02:14:48.852Z,18.59
2016-06-01T02:15:48.824Z,18.59
2016-06-01T02:16:48.811Z,18.65
2016-06-01T02:17:48.798Z,18.63
2016-06-01T02:18:48.769Z,18.6
2016-06-01T02:19:48.756Z,18.58
2016-06-01T02:20:48.743Z,18.56
2016-06-01T02:21:48.730Z,18.58
2016-06-01T02:22:48.718Z,18.58
2016-06-01T02:23:48.688Z,18.6
2016-06-01T02:24:48.677Z,18.58
2016-06-01T02:25:48.663Z,18.59
2016-06-01T02:26:48.618Z,18.59
2016-06-01T02:27:48.621Z,18.63
2016-06-01T02:28:48.593Z,18.58
2016-06-01T02:29:48.423Z,18.58
2016-06-01T02:30:48.568Z,18.58
2016-06-01T02:31:48.539Z,18.6
2016-06-01T02:32:48.525Z,18.66
2016-06-01T02:33:48.341Z,18.62
2016-06-01T02:34:48.328Z,18.58
2016-06-01T02:35:48.471Z,18.52
2016-06-01T02:36:48.459Z,18.55
2016-06-01T02:37:48.429Z,18.58
2016-06-01T02:38:48.525Z,18.55
2016-06-01T02:39:48.419Z,18.65
2016-06-01T02:40:48.391Z,18.6
2016-06-01T02:41:48.362Z,18.63
2016-06-01T02:42:48.334Z,18.62
2016-06-01T02:43:48.337Z,18.65
2016-06-01T02:44:48.308Z,18.44
2016-06-01T02:45:48.138Z,18.47
2016-06-01T02:46:48.266Z,18.56
2016-06-01T02:47:48.238Z,18.58
2016-06-01T02:48:48.225Z,18.59
2016-06-01T02:49:48.275Z,18.53
2016-06-01T02:50:48.261Z,18.55
2016-06-01T02:51:48.232Z,18.55
2016-06-01T02:52:48.219Z,18.62
2016-06-01T02:53:48.145Z,18.56
2016-06-01T02:54:48.179Z,18.55
2016-06-01T02:55:48.166Z,18.52
2016-06-01T02:56:48.091Z,18.6
2016-06-01T02:57:48.077Z,18.45
2016-06-01T02:58:48.048Z,18.52
2016-06-01T02:59:48.036Z,18.55
2016-06-01T03:00:48.023Z,18.47
2016-06-01T03:01:48.010Z,18.47
2016-06-01T03:02:47.982Z,18.56
2016-06-01T03:03:47.812Z,18.53
2016-06-01T03:04:47.939Z,18.5
2016-06-01T03:05:47.927Z,18.58
2016-06-01T03:06:47.898Z,18.53
2016-06-01T03:07:47.885Z,18.5
2016-06-01T03:08:47.967Z,18.49
2016-06-01T03:09:47.703Z,18.45
2016-06-01T03:10:47.831Z,18.49
2016-06-01T03:11:47.817Z,18.49
2016-06-01T03:12:47.790Z,18.52
2016-06-01T03:13:47.776Z,18.49
2016-06-01T03:14:47.764Z,18.5
2016-06-01T03:15:47.735Z,18.52
2016-06-01T03:16:47.722Z,18.45
2016-06-01T03:17:47.709Z,18.47
2016-06-01T03:18:47.697Z,18.44
2016-06-01T03:19:47.667Z,18.49
2016-06-01T03:20:47.655Z,18.52
2016-06-01T03:21:47.627Z,18.56
2016-06-01T03:22:47.457Z,18.56
2016-06-01T03:23:47.600Z,18.5
2016-06-01T03:24:47.572Z,18.55
2016-06-01T03:25:47.559Z,18.49
2016-06-01T03:26:47.546Z,18.56
2016-06-01T03:27:47.533Z,18.58
2016-06-01T03:28:47.505Z,18.45
2016-06-01T03:29:47.491Z,18.55
2016-06-01T03:30:47.479Z,18.5
2016-06-01T03:31:47.450Z,18.55
2016-06-01T03:32:47.438Z,18.55
2016-06-01T03:33:47.409Z,18.44
2016-06-01T03:34:47.395Z,18.5
2016-06-01T03:35:47.382Z,18.59
2016-06-01T03:36:47.354Z,18.56
2016-06-01T03:37:47.341Z,18.63
2016-06-01T03:38:47.626Z,18.63
2016-06-01T03:39:47.315Z,18.59
2016-06-01T03:40:47.286Z,18.59
2016-06-01T03:41:47.273Z,18.56
2016-06-01T03:42:47.261Z,18.63
2016-06-01T03:43:47.232Z,18.6
2016-06-01T03:44:47.220Z,18.65
2016-06-01T03:45:47.192Z,18.7
2016-06-01T03:46:47.177Z,18.6
2016-06-01T03:47:47.164Z,18.62
2016-06-01T03:48:47.152Z,18.62
2016-06-01T03:49:47.123Z,18.59
2016-06-01T03:50:47.110Z,18.66
2016-06-01T03:51:47.145Z,18.62
2016-06-01T03:52:47.068Z,18.56
2016-06-01T03:53:47.806Z,18.6
2016-06-01T03:54:47.044Z,18.62
2016-06-01T03:55:47.014Z,18.63
2016-06-01T03:56:47.002Z,18.62
2016-06-01T03:57:46.989Z,18.62
2016-06-01T03:58:46.960Z,18.59
2016-06-01T03:59:46.947Z,18.62
2016-06-01T04:00:46.934Z,18.7
2016-06-01T04:01:46.921Z,18.62
2016-06-01T04:02:46.893Z,18.58
2016-06-01T04:03:46.880Z,18.66
2016-06-01T04:04:46.868Z,18.66
2016-06-01T04:05:46.837Z,18.65
2016-06-01T04:06:46.826Z,18.66
2016-06-01T04:07:46.797Z,18.58
2016-06-01T04:08:47.049Z,18.65
2016-06-01T04:09:46.771Z,18.55
2016-06-01T04:10:46.759Z,18.6
2016-06-01T04:11:46.729Z,18.55
2016-06-01T04:12:46.717Z,18.59
2016-06-01T04:13:46.548Z,18.59
2016-06-01T04:14:46.690Z,18.63
2016-06-01T04:15:46.678Z,18.59
2016-06-01T04:16:46.650Z,18.66
2016-06-01T04:17:46.636Z,18.7
2016-06-01T04:18:46.451Z,18.6
2016-06-01T04:19:46.438Z,18.6
2016-06-01T04:20:46.582Z,18.62
2016-06-01T04:21:46.397Z,18.62
2016-06-01T04:22:46.541Z,18.63
2016-06-01T04:23:47.261Z,18.6
2016-06-01T04:24:46.592Z,18.62
2016-06-01T04:25:46.485Z,18.63
2016-06-01T04:26:46.473Z,18.65
2016-06-01T04:27:46.444Z,18.59
2016-06-01T04:28:46.432Z,18.71
2016-06-01T04:29:46.418Z,18.74
2016-06-01T04:30:46.406Z,18.7
2016-06-01T04:31:46.376Z,18.75
2016-06-01T04:32:46.364Z,18.74
2016-06-01T04:33:46.351Z,18.74
2016-06-01T04:34:46.338Z,18.73
2016-06-01T04:35:46.310Z,18.81
2016-06-01T04:36:46.296Z,18.78
2016-06-01T04:37:46.268Z,18.78
2016-06-01T04:38:46.584Z,18.74
2016-06-01T04:39:46.102Z,18.74
2016-06-01T04:40:46.229Z,18.71
2016-06-01T04:41:46.201Z,18.75
2016-06-01T04:42:46.187Z,18.71
2016-06-01T04:43:46.175Z,18.84
2016-06-01T04:44:46.006Z,18.8
2016-06-01T04:45:46.164Z,18.8
2016-06-01T04:46:46.136Z,18.86
2016-06-01T04:47:46.108Z,18.86
2016-06-01T04:48:46.078Z,18.86
2016-06-01T04:49:46.067Z,18.83
2016-06-01T04:50:46.053Z,18.84
2016-06-01T04:51:46.086Z,18.81
2016-06-01T04:52:45.856Z,18.86
2016-06-01T04:53:45.842Z,18.84
2016-06-01T04:54:46.110Z,18.95
2016-06-01T04:55:45.958Z,18.98
2016-06-01T04:56:45.944Z,18.99
2016-06-01T04:57:45.775Z,18.98
2016-06-01T04:58:45.902Z,18.99
2016-06-01T04:59:45.891Z,19.04
2016-06-01T05:00:45.877Z,18.98
2016-06-01T05:01:45.849Z,18.98
2016-06-01T05:02:45.835Z,19.07
2016-06-01T05:03:45.838Z,19.16
2016-06-01T05:04:45.825Z,19.04
2016-06-01T05:05:45.796Z,19
2016-06-01T05:06:45.768Z,19.07
2016-06-01T05:07:45.755Z,19.15
2016-06-01T05:08:45.758Z,19.15
2016-06-01T05:09:45.730Z,19.09
2016-06-01T05:10:45.701Z,19.09
2016-06-01T05:11:45.531Z,19.18
2016-06-01T05:12:45.659Z,19.15
2016-06-01T05:13:45.646Z,19.08
2016-06-01T05:14:45.633Z,19.12
2016-06-01T05:15:45.620Z,19.09
2016-06-01T05:16:45.592Z,18.99
2016-06-01T05:17:45.579Z,19.04
2016-06-01T05:18:45.566Z,18.96
2016-06-01T05:19:45.553Z,19.04
2016-06-01T05:20:45.525Z,18.99
2016-06-01T05:21:45.528Z,19.11
2016-06-01T05:22:45.498Z,19.08
2016-06-01T05:23:45.610Z,19.02
2016-06-01T05:24:45.317Z,19.07
2016-06-01T05:25:45.444Z,19
2016-06-01T05:26:45.431Z,18.98
2016-06-01T05:27:45.419Z,18.96
2016-06-01T05:28:45.389Z,18.95
2016-06-01T05:29:45.377Z,18.99
2016-06-01T05:30:45.364Z,18.99
2016-06-01T05:31:45.335Z,18.99
2016-06-01T05:32:45.322Z,18.86
2016-06-01T05:33:45.310Z,18.96
2016-06-01T05:34:45.140Z,18.9
2016-06-01T05:35:45.268Z,18.9
2016-06-01T05:36:45.099Z,18.92
2016-06-01T05:37:45.243Z,18.86
2016-06-01T05:38:45.073Z,18.86
2016-06-01T05:39:45.044Z,18.86
2016-06-01T05:40:45.031Z,18.83
2016-06-01T05:41:45.018Z,18.77
2016-06-01T05:42:45.146Z,18.78
2016-06-01T05:43:45.133Z,18.77
2016-06-01T05:44:45.136Z,18.6
2016-06-01T05:45:45.092Z,18.6
2016-06-01T05:46:44.923Z,18.71
2016-06-01T05:47:45.065Z,18.74
2016-06-01T05:48:44.897Z,18.73
2016-06-01T05:49:45.025Z,18.81
2016-06-01T05:50:45.012Z,18.8
2016-06-01T05:51:44.998Z,18.84
2016-06-01T05:52:44.986Z,18.89
2016-06-01T05:53:44.972Z,18.84
2016-06-01T05:54:44.959Z,18.88
2016-06-01T05:55:44.947Z,18.77
2016-06-01T05:56:44.919Z,18.84
2016-06-01T05:57:44.889Z,18.9
2016-06-01T05:58:44.877Z,18.93
2016-06-01T05:59:44.864Z,18.9
2016-06-01T06:00:44.836Z,18.96
2016-06-01T06:01:44.682Z,18.98
2016-06-01T06:02:44.810Z,18.99
2016-06-01T06:03:44.781Z,19.04
2016-06-01T06:04:44.768Z,18.96
2016-06-01T06:05:44.754Z,18.99
2016-06-01T06:06:44.741Z,18.96
2016-06-01T06:07:44.713Z,18.96
2016-06-01T06:08:45.326Z,18.99
2016-06-01T06:09:47.546Z,18.96
2016-06-01T06:10:46.502Z,19.12
2016-06-01T06:11:44.662Z,19.11
2016-06-01T06:12:44.649Z,19.19
2016-06-01T06:13:44.465Z,19.21
2016-06-01T06:14:44.607Z,19.31
2016-06-01T06:15:47.672Z,19.34
2016-06-01T06:16:44.565Z,19.31
2016-06-01T06:17:44.553Z,19.3
2016-06-01T06:18:44.539Z,19.31
2016-06-01T06:19:44.526Z,19.34
2016-06-01T06:20:45.904Z,19.44
2016-06-01T06:21:44.500Z,19.34
2016-06-01T06:22:44.472Z,19.3
2016-06-01T06:23:44.460Z,19.29
2016-06-01T06:24:44.447Z,19.4
2016-06-01T06:25:44.418Z,19.44
2016-06-01T06:26:44.405Z,19.4
2016-06-01T06:27:44.392Z,19.48
2016-06-01T06:28:44.379Z,19.44
2016-06-01T06:29:44.367Z,19.47
2016-06-01T06:30:46.166Z,19.51
2016-06-01T06:31:44.324Z,19.48
2016-06-01T06:32:44.311Z,19.49
2016-06-01T06:33:44.299Z,19.47
2016-06-01T06:34:44.271Z,19.39
2016-06-01T06:35:44.258Z,19.49
2016-06-01T06:36:44.244Z,19.41
2016-06-01T06:37:44.232Z,19.48
2016-06-01T06:38:44.406Z,19.47
2016-06-01T06:39:44.612Z,19.49
2016-06-01T06:40:44.177Z,19.39
2016-06-01T06:41:44.180Z,19.4
2016-06-01T06:42:44.152Z,19.33
2016-06-01T06:43:44.154Z,19.33
2016-06-01T06:44:44.126Z,19.39
2016-06-01T06:45:45.784Z,19.34
2016-06-01T06:46:44.146Z,19.48
2016-06-01T06:47:44.071Z,19.48
2016-06-01T06:48:44.058Z,19.49
2016-06-01T06:49:44.045Z,19.49
2016-06-01T06:50:44.204Z,19.49
2016-06-01T06:51:43.863Z,19.64
2016-06-01T06:52:43.834Z,19.67
2016-06-01T06:53:43.821Z,19.74
2016-06-01T06:54:43.808Z,19.69
2016-06-01T06:55:44.623Z,19.74
2016-06-01T06:56:43.923Z,19.79
2016-06-01T06:57:43.754Z,19.86
2016-06-01T06:58:43.898Z,19.88
2016-06-01T06:59:43.884Z,19.86
2016-06-01T07:00:43.855Z,19.86
2016-06-01T07:01:43.843Z,19.92
2016-06-01T07:02:43.674Z,19.92
2016-06-01T07:03:43.817Z,20.02
2016-06-01T07:04:43.805Z,20.02
2016-06-01T07:05:44.698Z,20.13
2016-06-01T07:06:43.607Z,20.13
2016-06-01T07:07:43.765Z,20.13
2016-06-01T07:08:43.738Z,20.26
2016-06-01T07:09:43.724Z,20.26
2016-06-01T07:10:44.774Z,20.36
2016-06-01T07:11:43.682Z,20.39
2016-06-01T07:12:43.685Z,20.4
2016-06-01T07:13:43.657Z,20.39
2016-06-01T07:14:43.659Z,20.41
2016-06-01T07:15:45.068Z,20.39
2016-06-01T07:16:43.617Z,20.29
2016-06-01T07:17:43.605Z,20.41
2016-06-01T07:18:43.435Z,20.44
2016-06-01T07:19:43.579Z,20.43
2016-06-01T07:20:43.566Z,20.36
2016-06-01T07:21:43.537Z,20.39
2016-06-01T07:22:43.525Z,20.4
2016-06-01T07:23:43.355Z,20.31
2016-06-01T07:24:43.514Z,20.34
2016-06-01T07:25:43.486Z,20.41
2016-06-01T07:26:43.473Z,20.4
2016-06-01T07:27:43.459Z,20.4
2016-06-01T07:28:43.462Z,20.4
2016-06-01T07:29:43.434Z,20.55
2016-06-01T07:30:44.561Z,20.6
2016-06-01T07:31:43.392Z,20.58
2016-06-01T07:32:43.380Z,20.59
2016-06-01T07:33:43.367Z,20.66
2016-06-01T07:34:43.353Z,20.72
2016-06-01T07:35:43.356Z,20.72
2016-06-01T07:36:43.328Z,20.65
2016-06-01T07:37:43.299Z,20.63
2016-06-01T07:38:43.645Z,20.69
2016-06-01T07:39:43.851Z,20.67
2016-06-01T07:40:45.010Z,20.75
2016-06-01T07:41:43.247Z,20.8
2016-06-01T07:42:43.250Z,20.7
2016-06-01T07:43:43.222Z,20.75
2016-06-01T07:44:43.209Z,20.66
2016-06-01T07:45:43.601Z,20.62
2016-06-01T07:46:43.182Z,20.6
2016-06-01T07:47:43.170Z,20.58
2016-06-01T07:48:43.157Z,20.63
2016-06-01T07:49:43.129Z,20.63
2016-06-01T07:50:43.115Z,20.59
2016-06-01T07:51:43.118Z,20.67
2016-06-01T07:52:42.948Z,20.72
2016-06-01T07:53:43.092Z,20.7
2016-06-01T07:54:43.064Z,20.7
2016-06-01T07:55:44.473Z,20.72
2016-06-01T07:56:43.037Z,20.72
2016-06-01T07:57:43.025Z,20.67
2016-06-01T07:58:42.997Z,20.72
2016-06-01T07:59:42.983Z,20.72
2016-06-01T08:00:42.971Z,20.82
2016-06-01T08:01:42.957Z,20.97
2016-06-01T08:02:42.960Z,20.95
2016-06-01T08:03:42.947Z,20.87
2016-06-01T08:04:42.919Z,20.77
2016-06-01T08:05:44.249Z,20.78
2016-06-01T08:06:42.877Z,20.72
2016-06-01T08:07:42.880Z,20.75
2016-06-01T08:08:43.727Z,20.63
2016-06-01T08:09:42.916Z,20.63
2016-06-01T08:10:44.654Z,20.59
2016-06-01T08:11:42.812Z,20.52
2016-06-01T08:12:42.799Z,20.47
2016-06-01T08:13:42.787Z,20.52
2016-06-01T08:14:42.618Z,20.52
2016-06-01T08:15:42.761Z,20.55
2016-06-01T08:16:42.748Z,20.51
2016-06-01T08:17:42.751Z,20.55
2016-06-01T08:18:42.721Z,20.52
2016-06-01T08:19:42.553Z,20.52
2016-06-01T08:20:42.540Z,20.63
2016-06-01T08:21:42.668Z,20.67
2016-06-01T08:22:42.655Z,20.63
2016-06-01T08:23:42.845Z,20.59
2016-06-01T08:24:42.659Z,20.63
2016-06-01T08:25:42.460Z,20.55
2016-06-01T08:26:42.603Z,20.56
2016-06-01T08:27:42.621Z,20.47
2016-06-01T08:28:42.577Z,20.47
2016-06-01T08:29:42.673Z,20.48
2016-06-01T08:30:43.661Z,20.4
2016-06-01T08:31:42.523Z,20.34
2016-06-01T08:32:42.509Z,20.34
2016-06-01T08:33:42.496Z,20.28
2016-06-01T08:34:42.484Z,20.34
2016-06-01T08:35:42.471Z,20.31
2016-06-01T08:36:42.630Z,20.22
2016-06-01T08:37:42.430Z,20.21
2016-06-01T08:38:42.432Z,20.16
2016-06-01T08:39:42.403Z,20.07
2016-06-01T08:40:42.391Z,20.13
2016-06-01T08:41:42.377Z,20.07
2016-06-01T08:42:42.365Z,20.02
2016-06-01T08:43:42.336Z,20.07
2016-06-01T08:44:42.324Z,20.13
2016-06-01T08:45:42.310Z,20.07
2016-06-01T08:46:42.297Z,20.1
2016-06-01T08:47:42.285Z,20.13
2016-06-01T08:48:42.272Z,20.11
2016-06-01T08:49:42.259Z,20.07
2016-06-01T08:50:42.245Z,19.95
2016-06-01T08:51:42.217Z,20.07
2016-06-01T08:52:42.204Z,19.96
2016-06-01T08:53:43.223Z,19.96
2016-06-01T08:54:42.023Z,19.95
2016-06-01T08:55:42.009Z,19.96
2016-06-01T08:56:42.137Z,20.02
2016-06-01T08:57:42.124Z,19.94
2016-06-01T08:58:42.111Z,19.92
2016-06-01T08:59:42.097Z,20
2016-06-01T09:00:42.085Z,19.94
2016-06-01T09:01:42.056Z,20
2016-06-01T09:02:42.044Z,19.99
2016-06-01T09:03:42.031Z,19.96
2016-06-01T09:04:42.017Z,19.92
2016-06-01T09:05:42.005Z,19.99
2016-06-01T09:06:41.976Z,19.96
2016-06-01T09:07:41.994Z,19.96
2016-06-01T09:08:41.950Z,20.03
2016-06-01T09:09:41.937Z,20.04
2016-06-01T09:10:41.924Z,20.02
2016-06-01T09:11:41.911Z,20.03
2016-06-01T09:12:41.899Z,20.07
2016-06-01T09:13:41.886Z,20.09
2016-06-01T09:14:41.857Z,20.13
2016-06-01T09:15:41.689Z,20.22
2016-06-01T09:16:41.857Z,20.18
2016-06-01T09:17:41.868Z,20.16
2016-06-01T09:18:41.878Z,20.07
2016-06-01T09:19:41.875Z,20.03
2016-06-01T09:20:41.947Z,20.03
2016-06-01T09:21:41.896Z,20.18
2016-06-01T09:22:41.875Z,20.16
2016-06-01T09:23:41.715Z,20.13
2016-06-01T09:24:41.711Z,20.21
2016-06-01T09:25:41.862Z,20.21
2016-06-01T09:26:41.853Z,20.19
2016-06-01T09:27:41.843Z,20.16
2016-06-01T09:28:41.832Z,20.19
2016-06-01T09:29:41.807Z,20.25
2016-06-01T09:30:41.798Z,20.26
2016-06-01T09:31:41.785Z,20.37
2016-06-01T09:32:41.774Z,20.4
2016-06-01T09:33:41.763Z,20.32
2016-06-01T09:34:41.734Z,20.32
2016-06-01T09:35:41.723Z,20.25
2016-06-01T09:36:41.710Z,20.28
2016-06-01T09:37:41.698Z,20.16
2016-06-01T09:38:41.701Z,20.04
2016-06-01T09:39:41.516Z,20.04
2016-06-01T09:40:41.660Z,20.07
2016-06-01T09:41:41.648Z,20.07
2016-06-01T09:42:41.620Z,20.09
2016-06-01T09:43:41.606Z,20.1
2016-06-01T09:44:41.594Z,20.18
2016-06-01T09:45:41.581Z,20.14
2016-06-01T09:46:41.568Z,20.14
2016-06-01T09:47:41.540Z,20.03
2016-06-01T09:48:41.543Z,20.03
2016-06-01T09:49:41.529Z,20.04
2016-06-01T09:50:41.361Z,20.06
2016-06-01T09:51:41.489Z,20.03
2016-06-01T09:52:41.460Z,20.04
2016-06-01T09:53:41.462Z,20.09
2016-06-01T09:54:42.292Z,20.06
2016-06-01T09:55:41.421Z,20.02
2016-06-01T09:56:41.408Z,20.06
2016-06-01T09:57:41.395Z,20.06
2016-06-01T09:58:41.366Z,19.96
2016-06-01T09:59:41.353Z,19.99
2016-06-01T10:00:41.356Z,19.86
2016-06-01T10:01:41.328Z,19.86
2016-06-01T10:02:41.315Z,19.85
2016-06-01T10:03:41.333Z,19.81
2016-06-01T10:04:41.273Z,19.71
2016-06-01T10:05:41.277Z,19.82
2016-06-01T10:06:41.263Z,19.82
2016-06-01T10:07:41.235Z,19.81
2016-06-01T10:08:41.221Z,19.79
2016-06-01T10:09:41.208Z,19.77
2016-06-01T10:10:41.180Z,19.7
2016-06-01T10:11:41.183Z,19.76
2016-06-01T10:12:41.155Z,19.79
2016-06-01T10:13:41.141Z,19.7
2016-06-01T10:14:41.128Z,19.69
2016-06-01T10:15:41.100Z,19.69
2016-06-01T10:16:41.087Z,19.66
2016-06-01T10:17:41.073Z,19.66
2016-06-01T10:18:41.061Z,19.64
2016-06-01T10:19:41.032Z,19.64
2016-06-01T10:20:41.020Z,19.67
2016-06-01T10:21:41.006Z,19.69
2016-06-01T10:22:40.993Z,19.71
2016-06-01T10:23:40.996Z,19.79
2016-06-01T10:24:40.953Z,19.74
2016-06-01T10:25:40.940Z,19.71
2016-06-01T10:26:40.926Z,19.73
2016-06-01T10:27:40.756Z,19.85
2016-06-01T10:28:40.900Z,19.89
2016-06-01T10:29:40.903Z,19.91
2016-06-01T10:30:40.719Z,19.94
2016-06-01T10:31:40.846Z,20.04
2016-06-01T10:32:40.833Z,20.04
2016-06-01T10:33:40.820Z,20.04
2016-06-01T10:34:40.808Z,20.1
2016-06-01T10:35:40.794Z,20.09
2016-06-01T10:36:40.656Z,20.06
2016-06-01T10:37:40.752Z,20.18
2016-06-01T10:38:40.756Z,20.16
2016-06-01T10:39:41.508Z,20.22
2016-06-01T10:40:40.557Z,20.25
2016-06-01T10:41:40.967Z,20.28
2016-06-01T10:42:40.672Z,20.28
2016-06-01T10:43:40.660Z,20.24
2016-06-01T10:44:40.646Z,20.22
2016-06-01T10:45:40.634Z,20.21
2016-06-01T10:46:40.620Z,20.07
2016-06-01T10:47:40.436Z,20.04
2016-06-01T10:48:40.579Z,20.06
2016-06-01T10:49:40.566Z,20.07
2016-06-01T10:50:40.554Z,20.19
2016-06-01T10:51:40.541Z,20.13
2016-06-01T10:52:40.543Z,20.26
2016-06-01T10:53:40.514Z,20.28
2016-06-01T10:54:40.908Z,20.4
2016-06-01T10:55:40.504Z,20.34
2016-06-01T10:56:40.476Z,20.39
2016-06-01T10:57:40.322Z,20.4
2016-06-01T10:58:40.434Z,20.44
2016-06-01T10:59:40.406Z,20.44
2016-06-01T11:00:40.393Z,20.43
2016-06-01T11:01:40.224Z,20.41
2016-06-01T11:02:40.366Z,20.41
2016-06-01T11:03:40.400Z,20.4
2016-06-01T11:04:40.341Z,20.32
2016-06-01T11:05:40.328Z,20.26
2016-06-01T11:06:40.315Z,20.24
2016-06-01T11:07:40.286Z,20.18
2016-06-01T11:08:40.274Z,20.31
2016-06-01T11:09:40.261Z,20.26
2016-06-01T11:10:40.513Z,20.25
2016-06-01T11:11:40.250Z,20.28
2016-06-01T11:12:40.221Z,20.25
2016-06-01T11:13:40.209Z,20.16
2016-06-01T11:14:40.040Z,20.13
2016-06-01T11:15:40.168Z,20.24
2016-06-01T11:16:40.154Z,20.16
2016-06-01T11:17:40.141Z,20.19
2016-06-01T11:18:40.129Z,20.18
2016-06-01T11:19:40.116Z,20.26
2016-06-01T11:20:40.087Z,20.26
2016-06-01T11:21:39.949Z,20.36
2016-06-01T11:22:39.904Z,20.37
2016-06-01T11:23:40.048Z,20.39
2016-06-01T11:24:40.035Z,20.32
2016-06-01T11:25:39.882Z,20.4
2016-06-01T11:26:39.994Z,20.5
2016-06-01T11:27:39.825Z,20.48
2016-06-01T11:28:39.968Z,20.47
2016-06-01T11:29:39.956Z,20.51
2016-06-01T11:30:39.942Z,20.56
2016-06-01T11:31:39.772Z,20.6
2016-06-01T11:32:39.760Z,20.65
2016-06-01T11:33:39.888Z,20.67
2016-06-01T11:34:39.891Z,20.77
2016-06-01T11:35:39.862Z,20.72
2016-06-01T11:36:39.850Z,20.75
2016-06-01T11:37:39.680Z,20.87
2016-06-01T11:38:39.839Z,20.93
2016-06-01T11:39:39.670Z,21
2016-06-01T11:40:39.797Z,20.97
2016-06-01T11:41:39.768Z,21.12
2016-06-01T11:42:39.771Z,21.17
2016-06-01T11:43:39.743Z,21.15
2016-06-01T11:44:39.746Z,21.12
2016-06-01T11:45:39.717Z,21.05
2016-06-01T11:46:39.704Z,21.06
2016-06-01T11:47:39.691Z,21.02
2016-06-01T11:48:39.772Z,21.07
2016-06-01T11:49:39.665Z,21.02
2016-06-01T11:50:39.652Z,20.93
2016-06-01T11:51:39.655Z,20.9
2016-06-01T11:52:39.626Z,20.88
2016-06-01T11:53:39.598Z,20.87
2016-06-01T11:54:41.069Z,20.88
2016-06-01T11:55:39.900Z,20.84
2016-06-01T11:56:39.559Z,20.74
2016-06-01T11:57:39.546Z,20.7
2016-06-01T11:58:39.533Z,20.78
2016-06-01T11:59:39.520Z,20.75
2016-06-01T12:00:39.507Z,20.7
2016-06-01T12:01:39.495Z,20.72
2016-06-01T12:02:39.497Z,20.67
2016-06-01T12:03:39.469Z,20.67
2016-06-01T12:04:39.456Z,20.77
2016-06-01T12:05:39.287Z,20.8
2016-06-01T12:06:39.413Z,20.72
2016-06-01T12:07:39.401Z,20.67
2016-06-01T12:08:39.389Z,20.6
2016-06-01T12:09:39.375Z,20.6
2016-06-01T12:10:39.362Z,20.65
2016-06-01T12:11:39.334Z,20.6
2016-06-01T12:12:39.321Z,20.63
2016-06-01T12:13:39.324Z,20.58
2016-06-01T12:14:39.295Z,20.63
2016-06-01T12:15:39.297Z,20.6
2016-06-01T12:16:39.269Z,20.56
2016-06-01T12:17:39.256Z,20.59
2016-06-01T12:18:39.243Z,20.55
2016-06-01T12:19:39.215Z,20.52
2016-06-01T12:20:39.060Z,20.58
2016-06-01T12:21:39.204Z,20.58
2016-06-01T12:22:39.191Z,20.63
2016-06-01T12:23:39.163Z,20.59
2016-06-01T12:24:40.103Z,20.56
2016-06-01T12:25:39.137Z,20.58
2016-06-01T12:26:39.124Z,20.63
2016-06-01T12:27:39.126Z,20.56
2016-06-01T12:28:39.115Z,20.51
2016-06-01T12:29:39.085Z,20.58
2016-06-01T12:30:39.056Z,20.44
2016-06-01T12:31:39.045Z,20.51
2016-06-01T12:32:39.015Z,20.41
2016-06-01T12:33:39.002Z,20.39
2016-06-01T12:34:38.833Z,20.36
2016-06-01T12:35:38.836Z,20.4
2016-06-01T12:36:38.963Z,20.4
2016-06-01T12:37:38.951Z,20.34
2016-06-01T12:38:38.922Z,20.29
2016-06-01T12:39:38.784Z,20.25
2016-06-01T12:40:39.334Z,20.24
2016-06-01T12:41:38.883Z,20.24
2016-06-01T12:42:38.870Z,20.18
2016-06-01T12:43:38.858Z,20.31
2016-06-01T12:44:38.829Z,20.28
2016-06-01T12:45:38.815Z,20.29
2016-06-01T12:46:38.803Z,20.37
2016-06-01T12:47:38.790Z,20.31
2016-06-01T12:48:38.777Z,20.37
2016-06-01T12:49:38.764Z,20.41
2016-06-01T12:50:38.751Z,20.34
2016-06-01T12:51:38.738Z,20.34
2016-06-01T12:52:38.710Z,20.32
2016-06-01T12:53:38.697Z,20.36
2016-06-01T12:54:38.684Z,20.37
2016-06-01T12:55:38.687Z,20.32